Time;durP1;ratioP1;P1;durP2;ratioP2;P2;SDS_P1;SDS_P2;PMS_P1;PMS_P2;Temp;Humidity;BMP_temperature;BMP_pressure;BME280_temperature;BME280_humidity;BME280_pressure;Samples;Min_cycle;Max_cycle;Signal;HPM_P1;HPM_P2
2022/07/04 00:01:30;;;;;;;11.40;10.30;;;;;;;17.35;71.92;98774.93;219702;1276;23434;-70
2022/07/04 00:06:46;;;;;;;9.50;8.50;;;;;;;17.28;72.33;98775.63;219152;1276;25457;-70
2022/07/04 00:11:48;;;;;;;11.30;10.20;;;;;;;17.23;72.53;98773.21;219041;1276;22548;-71
2022/07/04 00:16:54;;;;;;;10.30;9.30;;;;;;;17.18;72.58;98772.75;219180;1276;693182;-69
2022/07/04 00:21:56;;;;;;;10.60;9.50;;;;;;;17.15;72.94;98777.65;219790;1276;22566;-70
2022/07/04 00:27:01;;;;;;;11.30;9.30;;;;;;;17.10;73.03;98776.10;219687;1276;22550;-72
2022/07/04 00:32:05;;;;;;;10.00;9.10;;;;;;;17.07;73.25;98773.66;219727;1276;22561;-70
2022/07/04 00:37:10;;;;;;;10.00;9.00;;;;;;;17.04;73.41;98769.21;219699;1276;22560;-70
2022/07/04 00:42:19;;;;;;;9.70;8.70;;;;;;;17.00;73.63;98763.05;219776;1276;22561;-71
2022/07/04 00:47:28;;;;;;;10.00;9.00;;;;;;;16.96;73.79;98765.84;219659;1276;22577;-71
2022/07/04 00:52:37;;;;;;;9.80;8.80;;;;;;;16.90;73.92;98765.63;219734;1276;22552;-70
2022/07/04 00:57:42;;;;;;;9.20;8.00;;;;;;;16.86;74.07;98765.82;219680;1276;22544;-70
2022/07/04 01:02:46;;;;;;;9.10;8.20;;;;;;;16.80;74.20;98762.46;219701;1277;22613;-72
2022/07/04 01:08:03;;;;;;;8.60;7.70;;;;;;;16.75;74.23;98758.40;219111;1276;22644;-71
2022/07/04 01:13:22;;;;;;;8.60;7.70;;;;;;;16.68;74.21;98752.97;219187;1276;22559;-70
2022/07/04 01:18:30;;;;;;;8.70;7.90;;;;;;;16.62;74.47;98751.96;219178;1277;22606;-71
2022/07/04 01:23:40;;;;;;;8.70;7.90;;;;;;;16.56;74.57;98754.98;219733;1276;22800;-70
2022/07/04 01:28:46;;;;;;;9.00;8.20;;;;;;;16.52;74.87;98763.02;219833;1276;22544;-70
2022/07/04 01:33:49;;;;;;;10.40;7.70;;;;;;;16.46;75.03;98758.95;219989;1276;22616;-70
2022/07/04 01:39:09;;;;;;;9.20;8.20;;;;;;;16.39;75.07;98760.77;219777;1276;22551;-70
2022/07/04 01:44:14;;;;;;;10.20;8.70;;;;;;;16.32;75.10;98761.49;219937;1276;22557;-70
2022/07/04 01:49:16;;;;;;;11.40;8.60;;;;;;;16.25;75.30;98758.05;219002;1276;26322;-70
2022/07/04 01:54:29;;;;;;;;;;;;;;;;;;;;;
2022/07/04 02:04:55;;;;;;;10.00;8.70;;;;;;;16.02;75.77;98754.54;219751;1277;24324;-71
2022/07/04 02:09:58;;;;;;;10.20;9.10;;;;;;;15.93;75.87;98755.55;219639;1277;22628;-69
2022/07/04 02:15:10;;;;;;;11.60;9.80;;;;;;;15.85;76.12;98751.55;219219;1278;25315;-70
2022/07/04 02:20:14;;;;;;;11.50;9.40;;;;;;;15.79;76.33;98742.57;219804;1276;24507;-71
2022/07/04 02:25:37;;;;;;;11.10;9.70;;;;;;;15.75;76.84;98744.63;219713;1276;24302;-70
2022/07/04 02:30:40;;;;;;;13.00;9.30;;;;;;;15.72;77.06;98743.35;219288;1276;22570;-73
2022/07/04 02:35:46;;;;;;;11.70;9.80;;;;;;;15.68;77.14;98741.48;219167;1276;22541;-71
2022/07/04 02:40:52;;;;;;;10.50;9.50;;;;;;;15.64;77.17;98740.39;219874;1276;24373;-70
2022/07/04 02:45:57;;;;;;;10.30;9.20;;;;;;;15.59;77.30;98739.95;219726;1276;22973;-70
2022/07/04 02:51:03;;;;;;;12.90;9.50;;;;;;;15.55;77.50;98740.44;219748;1276;22538;-70
2022/07/04 02:56:06;;;;;;;11.20;10.00;;;;;;;15.54;77.87;98738.86;219778;1276;24951;-70
2022/07/04 03:01:10;;;;;;;10.60;9.50;;;;;;;15.56;78.09;98737.91;218990;1276;22620;-69
2022/07/04 03:06:15;;;;;;;13.70;10.60;;;;;;;15.60;78.35;98730.41;219197;1276;22689;-70
2022/07/04 03:11:19;;;;;;;11.20;9.50;;;;;;;15.65;78.56;98737.71;218925;1276;22547;-71
2022/07/04 03:16:25;;;;;;;12.60;11.00;;;;;;;15.71;78.81;98748.33;219654;1276;23072;-70
2022/07/04 03:21:48;;;;;;;11.60;10.50;;;;;;;15.82;78.79;98759.13;219086;1278;24213;-70
2022/07/04 03:26:54;;;;;;;12.20;10.80;;;;;;;16.06;79.04;98762.42;219022;1278;24235;-71
2022/07/04 03:32:09;;;;;;;14.20;11.50;;;;;;;16.52;79.14;98758.10;219686;1277;22981;-70
2022/07/04 03:37:11;;;;;;;12.80;11.10;;;;;;;17.11;78.77;98761.03;219845;1277;22590;-70
2022/07/04 03:42:14;;;;;;;10.30;8.90;;;;;;;17.65;77.53;98768.69;219738;1276;22580;-72
2022/07/04 03:47:20;;;;;;;10.40;9.40;;;;;;;17.96;75.95;98775.02;219857;1276;25313;-70
2022/07/04 03:52:23;;;;;;;10.00;8.80;;;;;;;18.26;75.19;98774.10;219955;1276;25493;-71
2022/07/04 03:57:25;;;;;;;10.60;9.30;;;;;;;18.57;74.68;98769.38;219934;1276;22700;-71
2022/07/04 04:02:28;;;;;;;10.00;9.10;;;;;;;19.02;74.04;98773.73;219883;1276;23518;-69
2022/07/04 04:07:33;;;;;;;11.40;9.20;;;;;;;19.44;73.04;98769.52;219667;1278;22542;-71
2022/07/04 04:12:35;;;;;;;10.70;9.60;;;;;;;19.90;73.11;98766.84;219714;1277;22543;-71
2022/07/04 04:17:40;;;;;;;10.50;9.30;;;;;;;20.31;72.64;98766.19;219503;1278;22568;-70
2022/07/04 04:22:43;;;;;;;11.40;10.00;;;;;;;20.58;71.87;98770.77;219979;1276;22708;-69
2022/07/04 04:27:45;;;;;;;10.70;9.60;;;;;;;20.57;71.01;98777.41;219767;1276;22641;-71
2022/07/04 04:32:48;;;;;;;11.90;10.60;;;;;;;20.25;70.67;98787.19;219760;1276;22599;-70
2022/07/04 04:37:50;;;;;;;11.80;10.50;;;;;;;20.16;71.24;98789.24;219643;1276;24782;-71
2022/07/04 04:43:01;;;;;;;14.60;12.10;;;;;;;20.10;71.80;98780.38;219795;1276;22644;-70
2022/07/04 04:48:09;;;;;;;13.80;12.20;;;;;;;19.92;71.36;98766.66;219767;1276;22578;-71
2022/07/04 04:53:12;;;;;;;13.40;12.10;;;;;;;19.62;71.75;98768.68;219791;1276;24997;-71
2022/07/04 04:58:18;;;;;;;17.60;12.90;;;;;;;19.44;72.28;98761.15;219773;1276;25357;-71
2022/07/04 05:03:23;;;;;;;15.20;12.50;;;;;;;19.50;72.86;98757.35;219934;1276;23352;-71
2022/07/04 05:08:38;;;;;;;12.10;10.20;;;;;;;19.60;73.02;98765.08;219724;1276;22878;-70
2022/07/04 05:13:53;;;;;;;15.20;13.00;;;;;;;19.69;72.69;98770.88;219809;1276;22553;-71
2022/07/04 05:18:55;;;;;;;14.20;12.70;;;;;;;19.71;72.97;98777.21;219625;1276;25377;-70
2022/07/04 05:24:09;;;;;;;14.20;12.70;;;;;;;19.80;73.00;98789.42;219802;1276;22739;-70
2022/07/04 05:29:14;;;;;;;15.50;12.10;;;;;;;19.90;73.15;98786.51;219745;1276;24110;-71
2022/07/04 05:34:27;;;;;;;13.50;12.10;;;;;;;19.98;73.17;98775.92;219018;1276;22570;-70
2022/07/04 05:39:29;;;;;;;14.60;13.00;;;;;;;20.15;73.17;98774.61;219721;1276;22561;-71
2022/07/04 05:44:32;;;;;;;20.70;13.20;;;;;;;20.34;73.27;98766.10;220254;1276;22535;-70
2022/07/04 05:49:37;;;;;;;16.60;13.30;;;;;;;20.61;73.00;98765.85;220206;1276;22538;-70
2022/07/04 05:54:42;;;;;;;14.40;12.80;;;;;;;20.88;72.56;98772.04;219873;1276;24152;-71
2022/07/04 05:59:48;;;;;;;15.40;12.70;;;;;;;21.02;71.85;98769.20;220311;1276;25361;-70
2022/07/04 06:04:53;;;;;;;15.60;14.00;;;;;;;21.17;71.56;98771.30;220480;1276;22555;-70
2022/07/04 06:09:55;;;;;;;15.30;13.80;;;;;;;21.34;71.09;98775.50;220421;1276;25321;-71
2022/07/04 06:15:09;;;;;;;15.10;13.50;;;;;;;21.54;70.86;98781.88;218307;1276;22600;-71
2022/07/04 06:20:15;;;;;;;15.90;14.10;;;;;;;21.75;70.52;98790.45;220118;1276;22536;-70
2022/07/04 06:25:20;;;;;;;13.90;12.60;;;;;;;21.90;70.23;98795.22;220397;1276;22936;-71
2022/07/04 06:30:22;;;;;;;12.20;10.90;;;;;;;22.11;69.94;98802.27;220180;1276;26673;-70
2022/07/04 06:35:54;;;;;;;13.60;12.20;;;;;;;22.34;69.41;98800.07;220325;1276;22634;-73
2022/07/04 06:41:00;;;;;;;14.00;12.60;;;;;;;22.63;68.96;98790.36;219487;1276;24349;-69
2022/07/04 06:46:05;;;;;;;12.80;11.60;;;;;;;22.90;68.18;98791.04;218527;1276;24388;-69
2022/07/04 06:51:08;;;;;;;13.10;11.40;;;;;;;23.18;67.51;98804.52;218316;1276;22543;-69
2022/07/04 06:56:13;;;;;;;13.40;12.10;;;;;;;23.47;66.83;98805.47;218700;1276;22560;-69
2022/07/04 07:01:17;;;;;;;13.00;11.80;;;;;;;23.74;66.48;98803.40;218678;1276;22613;-70
2022/07/04 07:06:36;;;;;;;11.90;10.80;;;;;;;24.07;66.17;98806.06;218886;1276;22605;-69
2022/07/04 07:11:59;;;;;;;12.10;10.90;;;;;;;24.46;64.15;98800.32;218836;1275;24266;-69
2022/07/04 07:17:07;;;;;;;12.50;11.30;;;;;;;24.73;62.88;98798.16;218773;1276;23159;-77
2022/07/04 07:22:14;;;;;;;13.60;12.20;;;;;;;24.90;61.84;98801.23;220044;1276;22549;-73
2022/07/04 07:27:19;;;;;;;;;;;;;;;25.04;61.16;98794.23;220316;1276;22645;-73
2022/07/04 07:32:24;;;;;;;13.40;12.20;;;;;;;25.32;60.98;98787.39;220008;1276;22606;-74
2022/07/04 07:37:26;;;;;;;13.90;12.30;;;;;;;25.53;59.70;98787.45;220168;1276;22730;-72
2022/07/04 07:42:29;;;;;;;13.20;10.80;;;;;;;25.74;58.70;98786.95;220105;1277;22569;-74
2022/07/04 07:47:32;;;;;;;11.50;10.40;;;;;;;25.96;58.47;98778.02;220182;1276;25454;-73
2022/07/04 07:52:34;;;;;;;11.10;10.10;;;;;;;26.23;57.34;98779.52;220157;1276;22534;-73
2022/07/04 07:57:36;;;;;;;11.70;10.60;;;;;;;26.35;55.64;98781.16;220069;1276;25405;-73
2022/07/04 08:08:02;;;;;;;11.30;10.10;;;;;;;26.79;55.09;98768.51;220187;1276;26490;-73
2022/07/04 08:13:05;;;;;;;10.90;9.30;;;;;;;26.99;53.10;98775.81;219828;1276;22607;-73
2022/07/04 08:18:07;;;;;;;9.80;8.80;;;;;;;27.17;52.23;98782.09;220133;1276;22529;-74
2022/07/04 08:23:10;;;;;;;9.40;8.50;;;;;;;27.44;50.83;98784.64;220079;1276;25263;-73
2022/07/04 08:28:12;;;;;;;9.90;8.90;;;;;;;27.60;48.87;98787.61;220235;1276;22584;-73
2022/07/04 08:33:14;;;;;;;8.90;7.80;;;;;;;27.77;48.44;98787.58;220082;1276;23830;-72
2022/07/04 08:38:18;;;;;;;8.90;8.10;;;;;;;28.04;48.12;98783.38;220192;1276;22531;-73
2022/07/04 08:43:22;;;;;;;8.10;7.30;;;;;;;28.35;47.72;98781.86;220013;1276;22590;-73
2022/07/04 08:48:28;;;;;;;8.00;7.30;;;;;;;28.67;46.91;98784.14;220160;1276;24265;-73
2022/07/04 08:53:33;;;;;;;7.40;6.40;;;;;;;29.05;46.13;98778.73;220112;1276;25362;-73
2022/07/04 08:58:38;;;;;;;7.00;6.30;;;;;;;29.41;45.42;98778.84;220037;1276;22560;-73
2022/07/04 09:03:42;;;;;;;8.30;7.50;;;;;;;29.74;44.51;98771.02;220217;1276;24232;-73
2022/07/04 09:08:44;;;;;;;8.00;6.10;;;;;;;30.05;44.39;98769.74;220438;1276;23405;-73
2022/07/04 09:13:49;;;;;;;7.90;6.80;;;;;;;30.12;41.93;98769.15;220118;1276;24229;-73
2022/07/04 09:18:55;;;;;;;8.60;7.30;;;;;;;30.05;41.97;98769.27;220185;1276;22545;-71
2022/07/04 09:23:57;;;;;;;7.60;6.90;;;;;;;30.20;41.85;98762.86;220045;1276;25409;-71
2022/07/04 09:28:59;;;;;;;7.90;7.10;;;;;;;30.47;42.33;98766.02;220039;1276;22541;-72
2022/07/04 09:34:10;;;;;;;7.50;6.80;;;;;;;30.74;41.67;98762.84;220106;1276;22622;-71
2022/07/04 09:39:21;;;;;;;7.40;6.70;;;;;;;30.86;41.43;98764.88;219945;1276;22693;-71
2022/07/04 09:44:42;;;;;;;9.30;6.60;;;;;;;30.89;40.53;98762.52;220135;1276;22565;-75
2022/07/04 09:50:11;;;;;;;5.90;5.30;;;;;;;30.91;40.63;98762.56;220027;1276;25474;-74
2022/07/04 09:55:21;;;;;;;6.20;5.30;;;;;;;30.92;39.49;98760.17;220093;1276;22573;-75
2022/07/04 10:00:29;;;;;;;7.40;6.60;;;;;;;30.98;40.06;98754.53;220131;1276;22538;-74
2022/07/04 10:05:31;;;;;;;6.40;5.80;;;;;;;31.22;40.37;98750.80;220005;1276;26259;-74
2022/07/04 10:10:39;;;;;;;5.70;5.20;;;;;;;31.16;39.40;98755.67;220025;1276;26324;-72
2022/07/04 10:15:43;;;;;;;8.10;7.40;;;;;;;31.05;39.63;98751.21;220301;1276;22613;-73
2022/07/04 10:20:49;;;;;;;6.40;5.80;;;;;;;31.06;39.85;98749.08;220280;1276;24381;-73
2022/07/04 10:25:53;;;;;;;5.50;5.10;;;;;;;30.98;39.50;98747.17;220278;1276;23349;-73
2022/07/04 10:30:58;;;;;;;6.10;5.50;;;;;;;30.91;40.19;98750.23;220144;1276;24381;-74
2022/07/04 10:36:22;;;;;;;5.60;5.10;;;;;;;31.17;40.56;98750.67;220007;1276;25437;-73
2022/07/04 10:41:29;;;;;;;5.40;4.90;;;;;;;31.45;40.35;98752.10;220386;1276;22587;-73
2022/07/04 10:46:37;;;;;;;6.60;5.20;;;;;;;31.62;39.40;98753.53;219965;1276;22580;-72
2022/07/04 10:51:42;;;;;;;5.30;4.80;;;;;;;31.63;38.84;98753.83;220357;1276;25256;-73
2022/07/04 10:56:47;;;;;;;5.10;4.70;;;;;;;31.84;39.40;98750.23;220216;1276;23482;-73
2022/07/04 11:02:18;;;;;;;5.70;5.30;;;;;;;32.15;38.34;98757.70;220161;1276;22605;-75
2022/07/04 11:07:29;;;;;;;4.90;4.60;;;;;;;32.42;37.62;98760.80;219714;1278;22735;-72
2022/07/04 11:12:32;;;;;;;4.60;4.20;;;;;;;32.37;37.39;98755.42;220056;1276;25491;-73
2022/07/04 11:17:37;;;;;;;4.70;4.30;;;;;;;32.29;37.89;98747.70;220218;1276;22562;-73
2022/07/04 11:22:39;;;;;;;4.40;4.10;;;;;;;32.08;37.70;98744.41;220359;1277;22737;-72
2022/07/04 11:27:42;;;;;;;4.50;4.20;;;;;;;32.05;38.02;98740.67;220314;1276;22696;-73
2022/07/04 11:32:44;;;;;;;4.90;4.50;;;;;;;31.99;37.93;98732.54;220137;1276;25194;-70
2022/07/04 11:37:57;;;;;;;5.50;4.80;;;;;;;31.97;37.99;98732.67;220251;1276;22572;-73
2022/07/04 11:48:28;;;;;;;4.00;3.70;;;;;;;32.03;38.55;98717.95;220077;1276;22528;-72
2022/07/04 11:53:31;;;;;;;5.00;4.60;;;;;;;31.91;38.22;98709.55;220277;1276;23845;-73
2022/07/04 11:58:43;;;;;;;4.40;4.10;;;;;;;31.93;38.40;98704.03;220222;1276;25467;-72
2022/07/04 12:03:45;;;;;;;5.20;4.40;;;;;;;31.98;38.05;98697.52;220142;1276;22566;-73
2022/07/04 12:08:47;;;;;;;4.10;3.80;;;;;;;31.81;37.63;98697.84;220382;1276;22583;-72
2022/07/04 12:13:49;;;;;;;5.40;4.90;;;;;;;31.78;37.90;98697.95;220275;1276;22589;-70
2022/07/04 12:18:55;;;;;;;4.20;3.90;;;;;;;31.76;37.82;98696.15;219792;1277;438736;-71
2022/07/04 12:23:57;;;;;;;3.60;3.20;;;;;;;32.07;37.84;98704.23;220086;1276;23293;-71
2022/07/04 12:29:09;;;;;;;3.20;2.90;;;;;;;32.43;36.93;98704.70;220002;1276;22542;-70
2022/07/04 12:34:15;;;;;;;2.90;2.70;;;;;;;32.52;35.37;98708.12;220187;1276;22557;-71
2022/07/04 12:39:29;;;;;;;2.00;1.80;;;;;;;32.45;34.58;98703.09;220206;1276;25430;-70
2022/07/04 12:44:32;;;;;;;2.20;2.10;;;;;;;32.52;33.90;98702.79;220163;1276;25408;-74
2022/07/04 12:49:35;;;;;;;2.20;2.10;;;;;;;32.70;34.27;98699.59;220103;1276;23136;-74
2022/07/04 12:54:38;;;;;;;2.20;2.10;;;;;;;32.67;33.30;98700.56;220070;1276;22615;-73
2022/07/04 12:59:42;;;;;;;3.20;3.00;;;;;;;32.40;33.70;98701.64;220492;1276;25319;-72
2022/07/04 13:04:44;;;;;;;3.90;3.40;;;;;;;32.23;34.05;98698.85;220175;1276;22586;-71
2022/07/04 13:09:46;;;;;;;2.20;1.70;;;;;;;32.34;34.27;98700.30;220089;1276;25378;-73
2022/07/04 13:14:49;;;;;;;1.70;1.60;;;;;;;32.52;33.34;98701.84;220290;1276;22717;-72
2022/07/04 13:19:52;;;;;;;1.80;1.70;;;;;;;32.47;32.48;98702.55;220204;1276;22613;-72
2022/07/04 13:24:54;;;;;;;1.80;1.60;;;;;;;32.26;31.88;98705.66;220320;1276;23207;-72
2022/07/04 13:29:56;;;;;;;1.70;1.60;;;;;;;31.96;31.22;98706.57;220233;1276;25267;-72
2022/07/04 13:34:59;;;;;;;1.40;1.40;;;;;;;31.79;31.66;98703.53;220311;1276;22573;-73
2022/07/04 13:40:03;;;;;;;1.40;1.30;;;;;;;31.66;31.16;98701.31;220260;1276;22537;-73
2022/07/04 13:45:14;;;;;;;2.00;1.90;;;;;;;31.41;30.42;98702.93;220255;1276;22603;-75
2022/07/04 13:50:16;;;;;;;2.20;2.10;;;;;;;31.28;30.98;98706.79;220352;1277;24250;-70
2022/07/04 13:55:29;;;;;;;1.60;1.50;;;;;;;31.35;31.19;98706.14;220149;1276;22729;-69
2022/07/04 14:00:33;;;;;;;1.60;1.50;;;;;;;31.35;30.98;98710.97;218908;1276;22721;-69
2022/07/04 14:05:36;;;;;;;1.70;1.60;;;;;;;31.43;31.18;98705.80;219248;1278;25456;-69
2022/07/04 14:10:45;;;;;;;1.70;1.50;;;;;;;31.57;31.35;98703.41;219330;1277;22586;-69
2022/07/04 14:15:48;;;;;;;1.50;1.40;;;;;;;31.76;31.34;98697.73;219289;1276;22526;-69
2022/07/04 14:20:50;;;;;;;2.40;1.60;;;;;;;32.06;30.86;98684.32;219209;1278;24262;-69
2022/07/04 14:25:53;;;;;;;1.70;1.60;;;;;;;32.40;30.62;98674.14;219154;1278;23083;-68
2022/07/04 14:30:55;;;;;;;1.70;1.60;;;;;;;32.59;30.55;98665.52;219236;1277;24150;-69
2022/07/04 14:35:57;;;;;;;2.40;1.50;;;;;;;32.58;30.31;98670.30;219144;1277;22547;-69
2022/07/04 14:41:09;;;;;;;1.70;1.60;;;;;;;32.46;30.30;98667.63;219201;1278;24333;-69
2022/07/04 14:46:12;;;;;;;1.60;1.50;;;;;;;32.27;30.37;98673.33;219257;1277;22615;-70
2022/07/04 14:51:16;;;;;;;1.60;1.50;;;;;;;32.21;30.53;98670.77;219284;1278;22816;-70
2022/07/04 14:56:19;;;;;;;2.20;2.00;;;;;;;32.34;31.04;98670.67;219272;1278;24373;-69
2022/07/04 15:01:21;;;;;;;2.70;1.90;;;;;;;32.55;30.86;98666.91;219102;1278;22542;-68
2022/07/04 15:06:23;;;;;;;2.00;1.90;;;;;;;32.61;30.63;98670.06;219373;1277;25390;-69
2022/07/04 15:11:25;;;;;;;1.90;1.80;;;;;;;32.58;30.21;98669.19;219336;1278;22701;-70
2022/07/04 15:16:28;;;;;;;2.00;1.60;;;;;;;32.46;30.27;98662.91;219152;1278;22551;-68
2022/07/04 15:27:01;;;;;;;1.70;1.60;;;;;;;32.19;30.81;98656.66;219255;1277;22584;-70
2022/07/04 15:32:04;;;;;;;1.80;1.70;;;;;;;32.29;30.73;98653.00;219135;1277;22568;-69
2022/07/04 15:37:11;;;;;;;2.00;1.80;;;;;;;32.35;30.78;98655.36;219113;1277;22544;-69
2022/07/04 15:42:17;;;;;;;2.10;2.00;;;;;;;32.35;31.06;98660.20;219179;1278;24240;-69
2022/07/04 15:47:19;;;;;;;2.60;2.20;;;;;;;32.18;31.40;98657.02;219357;1278;22549;-68
2022/07/04 15:52:25;;;;;;;2.20;2.00;;;;;;;32.01;32.20;98657.30;219255;1278;22577;-70
2022/07/04 15:57:30;;;;;;;2.10;2.00;;;;;;;31.99;32.69;98655.77;219336;1278;25460;-70
2022/07/04 16:02:32;;;;;;;2.60;2.00;;;;;;;32.07;32.47;98652.23;219208;1277;23127;-71
2022/07/04 16:07:35;;;;;;;2.10;2.00;;;;;;;32.06;32.34;98654.16;219315;1278;25138;-70
2022/07/04 16:12:37;;;;;;;2.60;2.40;;;;;;;32.05;32.14;98655.69;219746;1277;22566;-69
2022/07/04 16:17:39;;;;;;;2.40;2.20;;;;;;;32.10;32.12;98659.02;219127;1278;26490;-69
2022/07/04 16:22:41;;;;;;;4.40;2.30;;;;;;;32.08;32.18;98655.85;219171;1278;22569;-69
2022/07/04 16:27:43;;;;;;;2.70;2.50;;;;;;;32.08;32.42;98650.29;219166;1278;25258;-70
2022/07/04 16:32:45;;;;;;;3.20;3.00;;;;;;;31.84;32.51;98654.60;219252;1277;24230;-69
2022/07/04 16:37:48;;;;;;;3.40;3.00;;;;;;;31.42;32.93;98650.40;219168;1277;24234;-69
2022/07/04 16:42:50;;;;;;;3.50;3.20;;;;;;;31.02;33.52;98645.17;219091;1277;25246;-69
2022/07/04 16:47:52;;;;;;;5.10;4.00;;;;;;;30.72;34.24;98634.44;219075;1277;25501;-69
2022/07/04 16:52:55;;;;;;;3.40;3.10;;;;;;;30.56;34.82;98630.98;219224;1276;22566;-68
2022/07/04 16:57:58;;;;;;;4.20;3.80;;;;;;;30.41;35.20;98628.69;219407;1278;22678;-68
2022/07/04 17:03:01;;;;;;;3.40;3.10;;;;;;;30.22;35.75;98622.83;219160;1276;24275;-69
2022/07/04 17:08:04;;;;;;;3.50;3.10;;;;;;;30.05;36.12;98619.14;219205;1277;22577;-69
2022/07/04 17:13:06;;;;;;;3.20;2.90;;;;;;;29.87;36.61;98625.46;219367;1278;22553;-69
2022/07/04 17:18:13;;;;;;;3.40;3.00;;;;;;;29.62;37.12;98627.45;219250;1277;24292;-68
2022/07/04 17:23:16;;;;;;;2.70;2.50;;;;;;;29.39;37.65;98628.30;218798;1278;25935;-68
2022/07/04 17:28:19;;;;;;;3.70;2.90;;;;;;;29.24;38.03;98628.45;219112;1276;27581;-68
2022/07/04 17:33:21;;;;;;;3.00;2.80;;;;;;;29.10;38.12;98628.58;218925;1276;22550;-69
2022/07/04 17:38:24;;;;;;;3.10;2.90;;;;;;;28.87;37.99;98629.00;219146;1277;22600;-69
2022/07/04 17:43:26;;;;;;;3.60;2.60;;;;;;;28.63;38.49;98630.33;219226;1276;24300;-68
2022/07/04 17:48:29;;;;;;;3.70;3.00;;;;;;;28.42;38.54;98629.71;219370;1277;22551;-68
2022/07/04 17:53:32;;;;;;;3.90;2.80;;;;;;;28.19;38.65;98625.05;218856;1276;25722;-69
2022/07/04 17:58:34;;;;;;;3.90;2.70;;;;;;;27.94;38.96;98630.56;219272;1277;22717;-68
2022/07/04 18:03:36;;;;;;;4.60;2.90;;;;;;;27.66;39.33;98633.04;219144;1276;22565;-68
2022/07/04 18:08:38;;;;;;;3.00;2.80;;;;;;;27.37;39.65;98628.71;219221;1277;22580;-68
2022/07/04 18:13:40;;;;;;;2.90;2.70;;;;;;;27.17;39.87;98622.33;219297;1277;22549;-69
2022/07/04 18:18:43;;;;;;;9.50;3.70;;;;;;;27.01;40.19;98622.30;219339;1277;22550;-69
2022/07/04 18:23:47;;;;;;;3.60;3.30;;;;;;;26.85;40.26;98620.97;219110;1276;22551;-69
2022/07/04 18:28:51;;;;;;;3.70;3.20;;;;;;;26.73;40.44;98628.41;219325;1276;22567;-70
2022/07/04 18:33:53;;;;;;;4.30;3.20;;;;;;;26.60;40.54;98630.66;219282;1276;22577;-68
2022/07/04 18:38:55;;;;;;;3.30;3.10;;;;;;;26.48;40.69;98626.08;219173;1277;24441;-69
2022/07/04 18:43:58;;;;;;;4.60;3.00;;;;;;;26.35;40.71;98626.20;219306;1276;22576;-68
2022/07/04 18:49:13;;;;;;;3.40;3.10;;;;;;;26.24;40.86;98629.39;219357;1276;22550;-70
2022/07/04 18:54:30;;;;;;;5.80;3.20;;;;;;;26.15;40.87;98633.27;219115;1276;22586;-71
2022/07/04 18:59:32;;;;;;;4.70;3.30;;;;;;;26.06;40.81;98639.79;218896;1276;22537;-69
2022/07/04 19:04:34;;;;;;;5.60;2.90;;;;;;;25.96;40.74;98645.98;219244;1277;22663;-68
2022/07/04 19:09:37;;;;;;;3.30;2.80;;;;;;;25.88;40.65;98647.64;219252;1275;22549;-69
2022/07/04 19:14:39;;;;;;;3.40;2.90;;;;;;;25.79;40.66;98651.73;219324;1276;22964;-69
2022/07/04 19:19:41;;;;;;;8.80;3.70;;;;;;;25.70;41.31;98654.24;219547;1276;25243;-69
2022/07/04 19:24:45;;;;;;;5.90;4.20;;;;;;;25.59;41.66;98659.96;219461;1276;22583;-68
2022/07/04 19:29:50;;;;;;;4.80;3.60;;;;;;;25.51;41.81;98668.36;219189;1276;22810;-69
2022/07/04 19:34:52;;;;;;;4.90;3.40;;;;;;;25.43;41.92;98672.98;219385;1276;25240;-68
2022/07/04 19:39:59;;;;;;;6.50;3.40;;;;;;;25.36;41.99;98681.12;219799;1276;25227;-69
2022/07/04 19:45:02;;;;;;;7.50;3.60;;;;;;;25.27;42.44;98681.94;219174;1276;26503;-68
2022/07/04 19:50:05;;;;;;;5.70;3.50;;;;;;;25.19;42.80;98686.86;219211;1276;25416;-69
2022/07/04 19:55:18;;;;;;;16.70;11.30;;;;;;;25.11;43.16;98694.20;219152;1277;24398;-69
2022/07/04 20:00:20;;;;;;;8.00;4.50;;;;;;;25.05;43.54;98699.20;219173;1276;25360;-69
2022/07/04 20:05:23;;;;;;;3.90;3.60;;;;;;;24.99;43.74;98693.93;219307;1276;22664;-68
2022/07/04 20:10:25;;;;;;;6.40;3.20;;;;;;;24.92;44.20;98694.86;219259;1276;26547;-69
2022/07/04 20:15:28;;;;;;;4.30;3.50;;;;;;;24.85;44.29;98691.00;219202;1276;22790;-68
2022/07/04 20:20:30;;;;;;;5.80;3.20;;;;;;;24.78;44.77;98703.27;219225;1276;22721;-68
2022/07/04 20:25:33;;;;;;;3.40;3.00;;;;;;;24.69;45.27;98705.42;219137;1276;24291;-68
2022/07/04 20:30:35;;;;;;;7.80;3.10;;;;;;;24.60;45.45;98704.66;219305;1276;25327;-69
2022/07/04 20:35:38;;;;;;;3.90;3.30;;;;;;;24.54;46.02;98706.73;219260;1276;24444;-71
2022/07/04 20:40:41;;;;;;;4.70;3.30;;;;;;;24.48;47.03;98713.82;219149;1276;22602;-69
2022/07/04 20:45:44;;;;;;;4.20;3.20;;;;;;;24.39;47.78;98717.63;219073;1276;25434;-69
2022/07/04 20:50:46;;;;;;;4.90;3.90;;;;;;;24.29;48.36;98719.82;219214;1276;25464;-70
2022/07/04 20:55:49;;;;;;;5.60;4.10;;;;;;;24.18;50.19;98720.06;219120;1276;24294;-69
2022/07/04 21:00:51;;;;;;;4.10;3.80;;;;;;;24.04;51.08;98713.95;219253;1276;23028;-69
2022/07/04 21:05:54;;;;;;;5.80;4.10;;;;;;;23.92;52.28;98713.64;219110;1276;22565;-68
2022/07/04 21:10:56;;;;;;;4.00;3.70;;;;;;;23.76;52.02;98713.16;219268;1276;22630;-68
2022/07/04 21:15:58;;;;;;;7.30;3.70;;;;;;;23.60;51.20;98713.42;219124;1276;25105;-69
2022/07/04 21:21:03;;;;;;;4.70;3.40;;;;;;;23.47;51.03;98717.67;219179;1276;24505;-68
2022/07/04 21:26:05;;;;;;;4.40;3.80;;;;;;;23.34;50.96;98712.87;219203;1276;24289;-69
2022/07/04 21:31:09;;;;;;;4.20;3.80;;;;;;;23.20;50.94;98712.11;219286;1276;24333;-69
2022/07/04 21:36:16;;;;;;;4.90;4.30;;;;;;;23.10;51.13;98710.34;219143;1276;23012;-68
2022/07/04 21:41:23;;;;;;;5.30;4.20;;;;;;;23.07;50.96;98710.87;219441;1276;24268;-69
2022/07/04 21:46:25;;;;;;;4.20;3.10;;;;;;;23.10;50.73;98711.27;219268;1276;22561;-69
2022/07/04 21:51:28;;;;;;;2.90;2.70;;;;;;;23.13;50.45;98717.41;219050;1276;22566;-69
2022/07/04 21:56:30;;;;;;;3.50;3.20;;;;;;;23.16;50.53;98715.98;219159;1276;24241;-69
2022/07/04 22:01:32;;;;;;;3.50;3.20;;;;;;;23.14;51.12;98719.15;219216;1276;22605;-69
2022/07/04 22:06:38;;;;;;;3.40;3.10;;;;;;;23.06;51.20;98724.42;219190;1276;22778;-69
2022/07/04 22:11:40;;;;;;;3.80;3.50;;;;;;;22.94;51.24;98719.37;219255;1276;25322;-69
2022/07/04 22:16:42;;;;;;;4.70;3.30;;;;;;;22.84;51.46;98712.70;219318;1276;22565;-69
2022/07/04 22:21:45;;;;;;;3.70;3.40;;;;;;;22.76;51.71;98715.96;219445;1276;22563;-69
2022/07/04 22:26:47;;;;;;;3.70;3.40;;;;;;;22.69;51.97;98714.16;219156;1276;22542;-68
2022/07/04 22:31:49;;;;;;;4.80;3.10;;;;;;;22.60;52.54;98713.20;219102;1276;22600;-67
2022/07/04 22:36:51;;;;;;;4.00;3.30;;;;;;;22.49;53.05;98709.23;219177;1276;22547;-68
2022/07/04 22:41:53;;;;;;;3.00;2.80;;;;;;;22.35;53.48;98710.59;219202;1276;22711;-69
2022/07/04 22:46:56;;;;;;;2.90;2.60;;;;;;;22.20;53.60;98710.83;219128;1276;24101;-68
2022/07/04 22:51:58;;;;;;;3.00;2.70;;;;;;;22.08;53.47;98710.88;219215;1276;25246;-68
2022/07/04 22:57:03;;;;;;;2.70;2.50;;;;;;;21.98;53.51;98716.27;219096;1276;25394;-69
2022/07/04 23:02:05;;;;;;;3.20;2.90;;;;;;;21.90;53.86;98730.41;218953;1276;22559;-70
2022/07/04 23:07:08;;;;;;;2.90;2.70;;;;;;;21.79;53.99;98723.29;219197;1276;25315;-69
2022/07/04 23:12:25;;;;;;;3.40;2.70;;;;;;;21.69;54.24;98721.73;219460;1276;24387;-69
2022/07/04 23:17:47;;;;;;;2.90;2.70;;;;;;;21.60;54.81;98721.58;219229;1276;22575;-68
2022/07/04 23:22:50;;;;;;;6.40;3.30;;;;;;;21.52;55.10;98717.15;219453;1276;24312;-68
2022/07/04 23:27:52;;;;;;;3.30;3.00;;;;;;;21.46;55.48;98718.83;219036;1276;24394;-67
2022/07/04 23:32:54;;;;;;;5.00;2.80;;;;;;;21.38;55.89;98723.98;219122;1276;26420;-68
2022/07/04 23:37:56;;;;;;;3.90;3.50;;;;;;;21.29;56.49;98727.79;219149;1276;23911;-68
2022/07/04 23:42:59;;;;;;;3.00;2.80;;;;;;;21.21;57.16;98727.48;219157;1276;25259;-69
2022/07/04 23:48:01;;;;;;;3.30;3.00;;;;;;;21.10;57.75;98726.88;219245;1276;25255;-68
2022/07/04 23:53:03;;;;;;;4.00;3.50;;;;;;;20.97;58.20;98721.81;219110;1276;22556;-68